< < Back
Terminal Aerodrome Forecast


Current Version              Previous Versions:   1  2  3  4  5  6  7  8  9  

Terminal Aerodrome Forecast

820
FTUS42 KJAX 301416 AAA
TAFGNV
TAF AMD
KGNV 301416Z 3014/3112 28009KT P6SM SCT015 BKN050 WS015/29035KT
      TEMPO 3014/3016 BKN015
     FM301600 33012G18KT P6SM SCT020 BKN250
     FM301900 34010KT P6SM FEW250
     FM310000 01006KT P6SM FEW250=

Latest METAR

702
SAUS70 KWBC 311100 RRN
MTRGNV
METAR KGNV 311053Z AUTO 00000KT 10SM CLR 01/M02 A3028 RMK AO2 SLP253
T00111017


USA.gov is the U.S. government's official web portal to all federal, state and local government web resources and services.